Time;durP1;ratioP1;P1;durP2;ratioP2;P2;SDS_P1;SDS_P2;PMS_P1;PMS_P2;Temp;Humidity;BMP_temperature;BMP_pressure;BME280_temperature;BME280_humidity;BME280_pressure;Samples;Min_cycle;Max_cycle;Signal;HPM_P1;HPM_P2
2022/08/04 00:01:03;;;;;;;3.78;1.27;;;27.70;55.60;;;;;;6245609;22;20050;-64
2022/08/04 00:03:40;;;;;;;2.25;1.40;;;27.60;55.50;;;;;;6245292;22;20012;-65
2022/08/04 00:06:15;;;;;;;5.28;1.60;;;27.60;55.80;;;;;;6245609;22;20011;-64
2022/08/04 00:09:15;;;;;;;2.92;1.60;;;27.50;56.20;;;;;;6245538;23;20019;-65
2022/08/04 00:11:45;;;;;;;8.43;1.50;;;27.50;55.60;;;;;;6241858;23;20015;-64
2022/08/04 00:14:14;;;;;;;4.18;1.27;;;27.50;55.70;;;;;;6245460;22;20043;-65
2022/08/04 00:16:42;;;;;;;4.15;1.30;;;27.50;55.70;;;;;;6245449;22;20001;-64
2022/08/04 00:19:31;;;;;;;5.82;1.35;;;27.50;55.80;;;;;;6245679;22;20008;-64
2022/08/04 00:22:02;;;;;;;6.00;1.35;;;27.50;56.00;;;;;;6245837;22;20133;-64
2022/08/04 00:24:32;;;;;;;4.50;1.60;;;27.50;55.90;;;;;;6245398;22;20016;-65
2022/08/04 00:26:59;;;;;;;3.90;1.23;;;27.40;55.80;;;;;;6244976;22;20462;-65
2022/08/04 00:29:26;;;;;;;3.38;1.50;;;27.40;55.90;;;;;;6245366;22;20000;-65
2022/08/04 00:31:54;;;;;;;7.88;1.23;;;27.40;55.80;;;;;;6245008;22;20010;-64
2022/08/04 00:34:22;;;;;;;5.82;1.52;;;27.40;55.80;;;;;;6245364;22;20004;-65
2022/08/04 00:36:49;;;;;;;4.55;1.50;;;27.40;56.10;;;;;;6245474;22;20030;-65
2022/08/04 00:39:16;;;;;;;4.72;1.70;;;27.30;56.10;;;;;;6245687;23;20380;-65
2022/08/04 00:42:00;;;;;;;10.15;1.50;;;27.30;56.00;;;;;;6245583;22;20083;-65
2022/08/04 00:44:42;;;;;;;3.08;1.30;;;27.30;56.00;;;;;;6245056;23;20015;-65
2022/08/04 00:47:07;;;;;;;9.00;1.65;;;27.30;56.10;;;;;;6245820;22;20102;-64
2022/08/04 00:50:01;;;;;;;2.28;1.40;;;27.30;56.20;;;;;;6247447;23;20039;-65
2022/08/04 00:52:57;;;;;;;3.30;1.50;;;27.20;56.00;;;;;;6246897;23;20000;-64
2022/08/04 00:55:32;;;;;;;4.10;1.27;;;27.20;56.00;;;;;;6247063;22;20007;-65
2022/08/04 00:58:42;;;;;;;5.30;1.50;;;27.10;56.00;;;;;;6245422;23;20336;-65
2022/08/04 01:01:26;;;;;;;3.03;1.45;;;27.10;56.00;;;;;;6241815;23;20016;-64
2022/08/04 01:04:30;;;;;;;2.08;1.30;;;27.10;56.20;;;;;;6243418;23;20134;-65
2022/08/04 01:07:03;;;;;;;3.28;1.60;;;27.10;56.50;;;;;;6227846;23;20015;-64
2022/08/04 01:09:40;;;;;;;4.50;1.60;;;27.10;56.50;;;;;;6246875;22;20004;-65
2022/08/04 01:12:35;;;;;;;5.15;1.42;;;27.00;56.70;;;;;;6246773;23;20134;-65
2022/08/04 01:15:16;;;;;;;5.97;1.70;;;27.00;56.80;;;;;;6241902;23;20043;-64
2022/08/04 01:17:53;;;;;;;6.93;1.50;;;26.90;56.80;;;;;;6246484;22;19992;-65
2022/08/04 01:20:24;;;;;;;4.60;1.55;;;26.90;56.70;;;;;;6246409;23;20012;-64
2022/08/04 01:23:27;;;;;;;6.53;1.60;;;27.00;56.80;;;;;;6246939;22;20008;-64
2022/08/04 01:26:08;;;;;;;8.38;1.77;;;26.90;56.60;;;;;;6246530;23;19997;-64
2022/08/04 01:29:13;;;;;;;2.95;1.40;;;26.90;56.60;;;;;;6246335;23;20027;-65
2022/08/04 01:31:47;;;;;;;4.70;1.55;;;26.90;56.90;;;;;;6213447;23;20005;-64
2022/08/04 01:34:16;;;;;;;2.88;1.50;;;26.90;56.90;;;;;;6213693;23;20339;-65
2022/08/04 01:36:46;;;;;;;4.35;1.48;;;26.90;56.90;;;;;;6231512;23;20034;-63
2022/08/04 01:42:01;;;;;;;4.47;1.30;;;26.80;57.50;;;;;;6246648;23;20019;-64
2022/08/04 01:44:46;;;;;;;4.57;1.50;;;26.80;57.60;;;;;;6246268;22;20018;-65
2022/08/04 01:47:13;;;;;;;4.03;1.63;;;26.80;57.60;;;;;;6246394;22;20449;-65
2022/08/04 01:49:43;;;;;;;5.85;1.45;;;26.80;57.60;;;;;;6246417;22;20008;-64
2022/08/04 01:52:09;;;;;;;4.13;1.92;;;26.70;57.60;;;;;;6246248;22;20037;-65
2022/08/04 01:54:37;;;;;;;25.27;3.22;;;26.80;57.60;;;;;;6246379;23;20319;-65
2022/08/04 01:57:05;;;;;;;21.30;2.50;;;26.70;57.60;;;;;;6246594;22;20004;-65
2022/08/04 01:59:33;;;;;;;19.05;2.67;;;26.70;57.60;;;;;;6246634;22;20054;-64
2022/08/04 02:01:58;;;;;;;9.35;1.90;;;26.70;57.60;;;;;;6247003;22;20342;-64
2022/08/04 02:04:24;;;;;;;5.38;1.80;;;26.70;57.80;;;;;;6246310;23;20039;-65
2022/08/04 02:07:23;;;;;;;11.23;1.90;;;26.60;57.80;;;;;;6246467;23;20430;-64
2022/08/04 02:10:04;;;;;;;2.85;1.50;;;26.60;57.90;;;;;;6246268;23;20091;-64
2022/08/04 02:12:38;;;;;;;4.05;1.50;;;26.60;57.80;;;;;;6246376;23;20000;-64
2022/08/04 02:15:10;;;;;;;6.03;1.50;;;26.60;57.80;;;;;;6246462;23;20062;-65
2022/08/04 02:18:04;;;;;;;6.55;1.70;;;26.60;57.90;;;;;;6247042;23;20016;-64
2022/08/04 02:20:38;;;;;;;6.15;1.70;;;26.50;57.50;;;;;;6246599;22;20004;-64
2022/08/04 02:23:16;;;;;;;4.75;1.70;;;26.50;57.70;;;;;;6246455;22;20051;-65
2022/08/04 02:25:47;;;;;;;8.77;1.60;;;26.50;57.80;;;;;;6246492;22;20000;-64
2022/08/04 02:28:34;;;;;;;5.03;1.63;;;26.50;57.80;;;;;;6246089;22;20107;-65
2022/08/04 02:31:02;;;;;;;6.47;1.90;;;26.50;58.10;;;;;;6246303;22;20081;-64
2022/08/04 02:33:40;;;;;;;3.67;1.73;;;26.40;58.30;;;;;;6245992;23;20001;-64
2022/08/04 02:36:12;;;;;;;6.38;2.00;;;26.40;58.30;;;;;;6246485;22;20153;-64
2022/08/04 02:39:01;;;;;;;5.85;1.98;;;26.40;58.50;;;;;;6246225;22;20079;-65
2022/08/04 02:41:28;;;;;;;8.02;2.00;;;26.40;58.40;;;;;;6245972;22;20506;-65
2022/08/04 02:43:59;;;;;;;8.73;1.92;;;26.30;58.40;;;;;;6245652;22;20415;-64
2022/08/04 02:46:25;;;;;;;3.47;1.60;;;26.30;58.60;;;;;;6246168;22;20453;-65
2022/08/04 02:48:53;;;;;;;1.90;1.67;;;26.20;58.70;;;;;;6245978;22;20004;-65
2022/08/04 02:51:32;;;;;;;5.90;1.48;;;26.20;58.70;;;;;;6246202;22;20008;-64
2022/08/04 02:53:59;;;;;;;6.82;2.17;;;26.20;58.80;;;;;;6245836;22;20053;-64
2022/08/04 02:56:29;;;;;;;4.90;2.00;;;26.20;58.80;;;;;;6245660;22;20001;-64
2022/08/04 02:59:02;;;;;;;2.90;1.80;;;26.30;58.80;;;;;;6246159;22;20000;-64
2022/08/04 03:01:28;;;;;;;2.85;1.73;;;26.20;59.30;;;;;;6245849;22;20003;-64
2022/08/04 03:04:16;;;;;;;2.13;1.55;;;26.20;58.90;;;;;;6245841;22;20023;-65
2022/08/04 03:07:18;;;;;;;2.88;1.45;;;26.20;58.70;;;;;;6245619;22;20014;-64
2022/08/04 03:10:07;;;;;;;1.55;1.45;;;26.20;58.70;;;;;;6245795;22;20043;-64
2022/08/04 03:12:56;;;;;;;3.95;1.58;;;26.10;58.70;;;;;;6246038;23;20036;-65
2022/08/04 03:15:43;;;;;;;3.95;1.63;;;26.10;59.10;;;;;;6246006;22;20008;-64
2022/08/04 03:18:46;;;;;;;2.58;1.60;;;26.00;59.00;;;;;;6245836;23;20000;-64
2022/08/04 03:21:25;;;;;;;2.55;1.75;;;26.00;59.10;;;;;;6246223;22;20328;-65
2022/08/04 03:24:06;;;;;;;4.47;1.70;;;26.00;59.00;;;;;;6245529;23;20020;-65
2022/08/04 03:26:56;;;;;;;2.05;1.70;;;26.00;59.30;;;;;;6245295;23;20000;-64
2022/08/04 03:29:58;;;;;;;3.17;1.63;;;26.00;59.40;;;;;;6246114;22;20016;-64
2022/08/04 03:32:26;;;;;;;5.75;1.85;;;26.00;59.30;;;;;;6245791;22;20374;-64
2022/08/04 03:35:03;;;;;;;3.35;1.50;;;26.00;59.10;;;;;;6245468;23;20004;-64
2022/08/04 03:38:06;;;;;;;5.10;1.70;;;25.90;59.10;;;;;;6245952;23;20016;-65
2022/08/04 03:40:44;;;;;;;2.60;1.50;;;25.90;59.20;;;;;;6245851;23;20012;-64
2022/08/04 03:43:23;;;;;;;3.83;1.60;;;25.90;59.20;;;;;;6245799;23;20020;-65
2022/08/04 03:45:58;;;;;;;4.00;1.60;;;25.90;59.00;;;;;;6244992;22;20035;-65
2022/08/04 03:48:34;;;;;;;2.78;1.05;;;25.80;58.90;;;;;;6245356;23;20004;-64
2022/08/04 03:54:48;;;;;;;1.85;1.52;;;25.80;59.20;;;;;;6243779;23;20035;-67
2022/08/04 03:57:25;;;;;;;4.30;1.90;;;25.80;59.30;;;;;;6245339;23;20009;-64
2022/08/04 04:00:10;;;;;;;2.67;1.80;;;25.80;59.60;;;;;;6245331;23;20004;-68
2022/08/04 04:03:11;;;;;;;5.35;2.10;;;25.70;59.60;;;;;;6244991;23;20000;-67
2022/08/04 04:05:59;;;;;;;8.23;1.87;;;25.70;59.70;;;;;;6245433;22;20000;-67
2022/08/04 04:08:45;;;;;;;10.40;2.00;;;25.70;59.70;;;;;;6245222;22;20009;-66
2022/08/04 04:11:37;;;;;;;7.60;1.83;;;25.70;60.00;;;;;;6245598;23;20358;-64
2022/08/04 04:14:06;;;;;;;3.78;2.08;;;25.70;60.00;;;;;;6245637;22;20031;-71
2022/08/04 04:16:40;;;;;;;2.70;1.90;;;25.60;59.90;;;;;;6245191;23;19996;-71
2022/08/04 04:19:28;;;;;;;4.25;2.08;;;25.60;59.80;;;;;;6244940;23;20011;-69
2022/08/04 04:22:02;;;;;;;7.85;1.60;;;25.60;59.70;;;;;;6245335;22;20000;-70
2022/08/04 04:24:43;;;;;;;7.40;1.90;;;25.60;59.60;;;;;;6247235;23;20012;-69
2022/08/04 04:27:27;;;;;;;2.17;1.60;;;25.60;59.50;;;;;;6246728;22;20083;-69
2022/08/04 04:30:05;;;;;;;5.03;1.63;;;25.60;59.60;;;;;;6246948;22;20071;-70
2022/08/04 04:32:40;;;;;;;4.72;1.67;;;25.60;59.60;;;;;;6246609;22;20008;-70
2022/08/04 04:35:24;;;;;;;4.07;1.77;;;25.50;59.60;;;;;;6246576;23;20000;-69
2022/08/04 04:38:04;;;;;;;10.45;1.80;;;25.50;59.80;;;;;;6246552;23;19996;-69
2022/08/04 04:41:02;;;;;;;6.10;2.13;;;25.50;59.90;;;;;;6246902;23;20046;-69
2022/08/04 04:43:46;;;;;;;9.07;1.92;;;25.50;60.10;;;;;;6247032;22;20091;-69
2022/08/04 04:46:27;;;;;;;12.48;2.45;;;25.50;60.20;;;;;;6247170;23;20010;-68
2022/08/04 04:49:30;;;;;;;9.40;1.70;;;25.50;60.30;;;;;;6246818;23;20008;-69
2022/08/04 04:52:24;;;;;;;11.68;2.28;;;25.40;60.50;;;;;;6246693;22;20039;-69
2022/08/04 04:55:03;;;;;;;3.75;1.65;;;25.50;60.80;;;;;;6242175;23;20360;-68
2022/08/04 04:57:34;;;;;;;5.25;1.67;;;25.50;60.80;;;;;;6247122;22;20007;-69
2022/08/04 05:00:11;;;;;;;13.73;2.00;;;25.50;61.00;;;;;;6246801;22;20011;-68
2022/08/04 05:02:59;;;;;;;9.15;1.98;;;25.50;61.00;;;;;;6247269;22;20083;-69
2022/08/04 05:05:33;;;;;;;10.68;2.22;;;25.50;61.80;;;;;;6246853;23;20111;-68
2022/08/04 05:08:07;;;;;;;4.97;1.88;;;25.50;61.60;;;;;;6246914;22;20000;-69
2022/08/04 05:10:50;;;;;;;6.35;1.90;;;25.50;62.00;;;;;;6246832;23;20083;-69
2022/08/04 05:13:18;;;;;;;5.40;1.98;;;25.60;61.90;;;;;;6246625;23;20022;-69
2022/08/04 05:15:48;;;;;;;9.13;1.60;;;25.60;62.00;;;;;;6246668;23;20411;-69
2022/08/04 05:18:21;;;;;;;8.13;2.53;;;25.60;62.20;;;;;;6247268;22;20008;-69
2022/08/04 05:20:54;;;;;;;6.82;2.08;;;25.70;62.70;;;;;;6246818;22;20032;-69
2022/08/04 05:23:27;;;;;;;4.95;1.33;;;25.70;61.60;;;;;;6246179;22;20099;-69
2022/08/04 05:26:02;;;;;;;2.45;1.50;;;25.80;61.40;;;;;;6246537;22;20354;-69
2022/08/04 05:28:54;;;;;;;4.53;1.83;;;25.80;60.70;;;;;;6246489;22;20027;-68
2022/08/04 05:31:35;;;;;;;6.38;2.13;;;25.90;59.80;;;;;;6246003;22;20004;-69
2022/08/04 05:34:22;;;;;;;5.45;1.77;;;26.00;59.20;;;;;;6245824;22;20004;-69
2022/08/04 05:37:06;;;;;;;6.93;1.60;;;26.00;58.60;;;;;;6246249;22;19997;-68
2022/08/04 05:39:37;;;;;;;2.53;1.70;;;26.00;58.30;;;;;;6246496;22;20042;-69
2022/08/04 05:42:04;;;;;;;3.05;1.65;;;26.10;58.20;;;;;;6246260;22;20010;-69
2022/08/04 05:44:32;;;;;;;6.35;1.60;;;26.20;58.00;;;;;;6245970;23;20035;-69
2022/08/04 05:46:58;;;;;;;6.15;1.40;;;26.20;57.60;;;;;;6245999;22;19996;-69
2022/08/04 05:49:27;;;;;;;3.33;1.70;;;26.30;57.40;;;;;;6246394;22;20335;-69
2022/08/04 05:52:02;;;;;;;6.78;1.73;;;26.30;57.20;;;;;;6245751;22;20331;-69
2022/08/04 05:54:30;;;;;;;6.93;1.58;;;26.40;57.10;;;;;;6245575;22;20000;-69
2022/08/04 05:56:57;;;;;;;4.28;1.55;;;26.40;56.90;;;;;;6245910;22;20062;-69
2022/08/04 05:59:25;;;;;;;4.53;1.65;;;26.40;56.40;;;;;;6245787;22;20004;-69
2022/08/04 06:01:54;;;;;;;3.80;1.38;;;26.50;56.20;;;;;;6246280;22;20087;-69
2022/08/04 06:04:21;;;;;;;5.75;1.33;;;26.50;56.20;;;;;;6245422;22;20062;-69
2022/08/04 06:06:48;;;;;;;3.50;1.48;;;26.60;56.40;;;;;;6245488;22;20073;-71
2022/08/04 06:09:14;;;;;;;4.15;1.50;;;26.60;56.40;;;;;;6245832;22;20085;-69
2022/08/04 06:11:41;;;;;;;6.03;1.80;;;26.60;56.30;;;;;;6245446;23;20012;-67
2022/08/04 06:14:12;;;;;;;5.05;1.65;;;26.70;56.40;;;;;;6245398;22;20000;-69
2022/08/04 06:16:41;;;;;;;3.75;1.50;;;26.70;56.30;;;;;;6245903;22;20015;-69
2022/08/04 06:19:10;;;;;;;2.17;1.58;;;26.70;56.00;;;;;;6245457;22;20315;-69
2022/08/04 06:21:39;;;;;;;2.97;1.60;;;26.80;55.80;;;;;;6245715;22;20004;-68
2022/08/04 06:24:09;;;;;;;2.90;1.33;;;26.90;55.50;;;;;;6245138;22;20066;-69
2022/08/04 06:26:36;;;;;;;2.35;1.40;;;26.90;55.30;;;;;;6245558;22;19996;-69
2022/08/04 06:29:03;;;;;;;6.35;1.50;;;27.00;55.30;;;;;;6246046;22;20036;-69
2022/08/04 06:34:20;;;;;;;2.60;1.33;;;27.00;55.10;;;;;;6215806;22;20050;-69
2022/08/04 06:36:47;;;;;;;2.58;1.50;;;27.10;55.50;;;;;;6245723;23;20004;-69
2022/08/04 06:39:13;;;;;;;5.93;1.48;;;27.20;54.70;;;;;;6245414;22;20004;-69
2022/08/04 06:41:39;;;;;;;4.30;1.48;;;27.20;54.40;;;;;;6245461;22;20442;-69
2022/08/04 06:44:08;;;;;;;2.42;1.40;;;27.30;54.40;;;;;;6245709;22;20008;-69
2022/08/04 06:46:38;;;;;;;4.60;1.30;;;27.30;54.10;;;;;;6246037;22;20000;-69
2022/08/04 06:49:05;;;;;;;4.03;1.40;;;27.40;53.90;;;;;;6246153;22;20018;-69
2022/08/04 06:51:33;;;;;;;3.35;1.40;;;27.50;53.80;;;;;;6246087;22;20371;-70
2022/08/04 06:53:59;;;;;;;3.40;1.55;;;27.50;53.40;;;;;;6245744;22;20099;-70
2022/08/04 06:56:28;;;;;;;2.90;2.03;;;27.60;53.10;;;;;;6245852;22;20028;-70
2022/08/04 06:58:54;;;;;;;2.60;1.23;;;27.60;52.90;;;;;;6246068;22;20011;-70
2022/08/04 07:01:21;;;;;;;1.60;1.40;;;27.70;52.70;;;;;;6246079;22;20003;-70
2022/08/04 07:03:48;;;;;;;3.53;1.30;;;27.80;52.70;;;;;;6245874;22;20016;-70
2022/08/04 07:06:14;;;;;;;4.20;1.27;;;27.80;52.80;;;;;;6245837;22;20039;-70
2022/08/04 07:08:40;;;;;;;1.65;1.10;;;27.90;52.90;;;;;;6245501;22;20004;-69
2022/08/04 07:11:07;;;;;;;3.30;1.30;;;27.90;52.70;;;;;;6245714;23;20078;-69
2022/08/04 07:13:34;;;;;;;6.07;1.30;;;28.00;52.50;;;;;;6246240;22;20019;-70
2022/08/04 07:16:01;;;;;;;4.93;1.40;;;28.00;52.20;;;;;;6245876;22;20041;-70
2022/08/04 07:18:29;;;;;;;2.22;1.40;;;28.10;52.20;;;;;;6245601;22;20018;-70
2022/08/04 07:20:55;;;;;;;5.20;1.35;;;28.10;52.00;;;;;;6246007;22;20324;-70
2022/08/04 07:23:23;;;;;;;4.65;1.40;;;28.20;51.80;;;;;;6246232;22;20008;-70
2022/08/04 07:25:56;;;;;;;4.80;1.50;;;28.20;51.50;;;;;;6245336;22;20453;-70
2022/08/04 07:28:24;;;;;;;2.78;1.23;;;28.30;51.40;;;;;;6243959;22;20047;-70
2022/08/04 07:30:51;;;;;;;1.30;1.20;;;28.40;51.20;;;;;;6245157;22;20014;-70
2022/08/04 07:33:17;;;;;;;2.42;1.23;;;28.40;50.90;;;;;;6245140;22;20000;-70
2022/08/04 07:35:46;;;;;;;4.70;1.27;;;28.50;50.60;;;;;;6245361;22;20005;-70
2022/08/04 07:38:12;;;;;;;3.33;1.40;;;28.50;50.20;;;;;;6245490;22;20076;-70
2022/08/04 07:40:38;;;;;;;3.35;1.50;;;28.60;49.90;;;;;;6245906;23;20027;-70
2022/08/04 07:43:05;;;;;;;3.78;1.30;;;28.60;49.70;;;;;;6245663;22;20044;-70
2022/08/04 07:45:31;;;;;;;3.50;1.30;;;28.70;49.80;;;;;;6245742;22;20000;-70
2022/08/04 07:47:57;;;;;;;8.38;1.40;;;28.80;49.30;;;;;;6245581;22;20415;-70
2022/08/04 07:50:25;;;;;;;2.53;1.65;;;28.80;49.00;;;;;;6245921;23;20000;-70
2022/08/04 07:52:51;;;;;;;6.80;2.08;;;28.90;49.20;;;;;;6245836;22;20370;-70
2022/08/04 07:55:17;;;;;;;2.72;1.27;;;28.90;49.70;;;;;;6245681;22;20004;-70
2022/08/04 07:57:42;;;;;;;2.10;1.10;;;29.00;50.00;;;;;;6247792;23;20004;-70
2022/08/04 08:00:12;;;;;;;3.03;1.15;;;29.10;49.10;;;;;;6247833;23;20426;-69
2022/08/04 08:02:38;;;;;;;2.08;1.13;;;29.10;48.40;;;;;;6247638;22;20417;-70
2022/08/04 08:05:06;;;;;;;1.65;1.30;;;29.20;48.00;;;;;;6247711;22;20075;-70
2022/08/04 08:07:32;;;;;;;3.13;1.20;;;29.30;48.20;;;;;;6248053;22;20004;-70
2022/08/04 08:09:58;;;;;;;1.48;1.23;;;29.30;48.40;;;;;;6247702;22;20027;-70
2022/08/04 08:12:24;;;;;;;2.38;1.20;;;29.40;48.40;;;;;;6247988;23;20001;-70
2022/08/04 08:14:51;;;;;;;3.05;1.40;;;29.50;48.00;;;;;;6247707;22;20040;-70
2022/08/04 08:17:16;;;;;;;2.80;1.20;;;29.60;47.60;;;;;;6247786;22;20007;-70
2022/08/04 08:19:42;;;;;;;1.70;1.25;;;29.60;47.50;;;;;;6247688;23;20000;-70
2022/08/04 08:22:10;;;;;;;1.77;1.20;;;29.70;47.20;;;;;;6247764;23;20110;-70
2022/08/04 08:24:36;;;;;;;1.58;1.10;;;29.80;46.90;;;;;;6247591;22;20031;-70
2022/08/04 08:27:03;;;;;;;5.93;1.25;;;29.80;46.60;;;;;;6247338;22;20016;-70
2022/08/04 08:29:29;;;;;;;5.13;1.27;;;29.90;46.10;;;;;;6247729;22;20004;-70
2022/08/04 08:31:55;;;;;;;1.42;1.23;;;29.90;45.90;;;;;;6247905;23;20011;-70
2022/08/04 08:34:21;;;;;;;1.35;1.17;;;30.00;45.80;;;;;;6247354;22;20004;-70
2022/08/04 08:36:57;;;;;;;2.95;1.33;;;30.10;45.60;;;;;;6247483;22;20007;-70
2022/08/04 08:39:43;;;;;;;3.72;1.30;;;30.20;45.50;;;;;;6247314;22;20035;-69
2022/08/04 08:42:38;;;;;;;4.15;1.27;;;30.20;45.50;;;;;;6247505;23;20000;-70
2022/08/04 08:45:16;;;;;;;2.45;1.35;;;30.30;45.50;;;;;;6247758;23;20027;-70
2022/08/04 08:48:15;;;;;;;185.43;16.15;;;30.40;45.10;;;;;;6247502;23;20517;-69
2022/08/04 08:50:44;;;;;;;12.77;2.22;;;30.40;45.00;;;;;;6247406;23;20000;-70
2022/08/04 08:53:20;;;;;;;1.80;1.15;;;30.50;44.90;;;;;;6246957;23;20027;-70
2022/08/04 08:56:09;;;;;;;4.05;1.20;;;30.50;44.30;;;;;;6247172;22;19996;-70
2022/08/04 08:58:46;;;;;;;5.25;1.13;;;30.60;43.90;;;;;;6241630;23;20043;-70
2022/08/04 09:01:44;;;;;;;5.80;1.20;;;30.70;43.60;;;;;;6246949;23;20000;-69
2022/08/04 09:04:13;;;;;;;5.13;1.20;;;30.70;43.60;;;;;;6243001;23;20032;-70
2022/08/04 09:07:11;;;;;;;3.25;1.20;;;30.80;43.10;;;;;;6247465;22;20066;-70
2022/08/04 09:10:01;;;;;;;38.33;2.00;;;30.90;42.90;;;;;;6241527;23;20012;-69
2022/08/04 09:12:28;;;;;;;4.63;1.17;;;30.90;43.20;;;;;;6247455;22;20008;-69
2022/08/04 09:15:11;;;;;;;3.70;1.40;;;31.00;43.40;;;;;;6247038;22;19996;-69
2022/08/04 09:18:01;;;;;;;2.13;1.05;;;31.10;43.50;;;;;;6247336;22;20075;-69
2022/08/04 09:20:42;;;;;;;4.70;1.30;;;31.20;43.10;;;;;;6247174;22;20011;-69
2022/08/04 09:23:25;;;;;;;4.03;1.92;;;31.20;42.90;;;;;;6247007;22;20005;-69
2022/08/04 09:26:02;;;;;;;5.57;1.20;;;31.30;42.70;;;;;;6246780;22;20001;-70
2022/08/04 09:28:36;;;;;;;2.88;1.27;;;31.40;41.60;;;;;;6246735;22;20398;-70
2022/08/04 09:31:11;;;;;;;3.05;1.13;;;31.40;41.90;;;;;;6246950;22;20007;-70
2022/08/04 09:33:43;;;;;;;1.42;1.20;;;31.50;42.00;;;;;;6246896;22;20000;-70
2022/08/04 09:36:40;;;;;;;3.55;1.30;;;31.60;42.00;;;;;;6246909;23;20024;-69
2022/08/04 09:39:09;;;;;;;3.30;1.23;;;31.60;42.10;;;;;;6247309;23;20012;-70
2022/08/04 09:42:06;;;;;;;4.38;1.20;;;31.70;41.30;;;;;;6246022;22;20004;-69
2022/08/04 09:44:59;;;;;;;10.45;1.42;;;31.80;41.30;;;;;;6246592;22;20024;-69
2022/08/04 09:47:36;;;;;;;1.05;0.95;;;31.90;41.70;;;;;;6246476;22;20031;-69
2022/08/04 09:50:39;;;;;;;4.43;1.30;;;31.90;41.50;;;;;;6246673;22;20000;-70
2022/08/04 09:53:31;;;;;;;1.58;1.45;;;32.00;41.30;;;;;;6246287;22;20039;-69
2022/08/04 09:56:13;;;;;;;1.75;1.10;;;32.00;40.40;;;;;;6246016;22;20330;-70
2022/08/04 09:59:05;;;;;;;2.38;1.13;;;32.10;40.40;;;;;;6246174;22;20004;-70
2022/08/04 10:01:33;;;;;;;1.83;1.20;;;32.20;40.50;;;;;;6246424;22;20004;-71
2022/08/04 10:04:01;;;;;;;1.77;1.15;;;32.30;40.30;;;;;;6246723;22;20090;-69
2022/08/04 10:06:46;;;;;;;4.07;1.30;;;32.30;40.40;;;;;;6246539;22;20326;-69
2022/08/04 10:09:21;;;;;;;2.72;1.20;;;32.40;40.10;;;;;;6246525;22;20111;-70
2022/08/04 10:11:56;;;;;;;1.10;1.00;;;32.50;40.20;;;;;;6246599;22;20054;-69
2022/08/04 10:14:49;;;;;;;2.63;1.23;;;32.50;39.90;;;;;;6246320;23;19996;-69
2022/08/04 10:17:46;;;;;;;2.13;1.00;;;32.50;39.60;;;;;;6246312;22;20005;-68
2022/08/04 10:20:48;;;;;;;1.65;1.17;;;32.60;39.50;;;;;;6246289;23;20023;-69
2022/08/04 10:23:16;;;;;;;2.17;1.13;;;32.70;39.30;;;;;;6246291;23;20016;-70
2022/08/04 10:26:19;;;;;;;6.40;1.13;;;32.70;39.40;;;;;;6246191;23;20028;-69
2022/08/04 10:29:09;;;;;;;3.60;0.95;;;32.70;39.20;;;;;;6246003;22;20016;-69
2022/08/04 10:31:43;;;;;;;2.40;1.00;;;32.80;39.30;;;;;;6246368;22;20011;-69
2022/08/04 10:34:38;;;;;;;2.03;0.88;;;32.80;39.20;;;;;;6246344;22;20000;-70
2022/08/04 10:37:24;;;;;;;4.88;1.20;;;32.90;39.40;;;;;;6245196;23;20008;-70
2022/08/04 10:40:35;;;;;;;7.43;1.30;;;32.90;39.10;;;;;;6246186;22;20004;-70
2022/08/04 10:42:41;;;;;;;3.00;0.98;;;33.00;39.40;;;;;;6245990;23;20054;-70
2022/08/04 10:45:18;;;;;;;8.45;1.25;;;33.10;39.30;;;;;;6246082;22;20012;-70
2022/08/04 10:47:57;;;;;;;6.85;1.20;;;33.10;38.80;;;;;;6245809;22;20008;-70
2022/08/04 10:50:25;;;;;;;4.30;1.20;;;33.10;38.90;;;;;;6245951;22;20007;-70
2022/08/04 10:53:04;;;;;;;3.50;1.20;;;33.20;38.80;;;;;;6245925;22;20054;-69
2022/08/04 10:55:39;;;;;;;4.18;1.00;;;33.20;38.60;;;;;;6246387;22;20327;-70
2022/08/04 10:58:10;;;;;;;2.13;0.90;;;33.20;38.60;;;;;;6245712;22;20000;-71
2022/08/04 11:00:40;;;;;;;3.83;0.80;;;33.20;38.50;;;;;;6242583;22;20008;-69
2022/08/04 11:03:20;;;;;;;2.13;1.08;;;33.30;38.60;;;;;;6242508;22;20036;-70
2022/08/04 11:05:48;;;;;;;0.80;0.80;;;33.30;38.30;;;;;;6243484;22;20071;-70
2022/08/04 11:08:28;;;;;;;2.10;1.00;;;33.40;38.10;;;;;;6245756;23;20078;-70
2022/08/04 11:11:06;;;;;;;1.83;0.80;;;33.40;37.30;;;;;;6246012;22;20075;-69
2022/08/04 11:13:41;;;;;;;1.25;1.00;;;33.40;38.00;;;;;;6245453;22;20004;-69
2022/08/04 11:16:20;;;;;;;1.35;0.88;;;33.40;37.10;;;;;;6245404;22;20007;-69
2022/08/04 11:19:23;;;;;;;2.28;0.88;;;33.50;37.60;;;;;;6245761;22;20032;-68
2022/08/04 11:21:56;;;;;;;1.88;1.05;;;33.50;37.50;;;;;;6230278;23;20014;-69
2022/08/04 11:24:43;;;;;;;1.23;0.88;;;33.50;37.30;;;;;;6245533;22;20054;-68
2022/08/04 11:27:21;;;;;;;2.05;0.90;;;33.50;37.10;;;;;;6245414;23;20012;-68
2022/08/04 11:30:02;;;;;;;3.25;1.10;;;33.60;37.30;;;;;;6245368;22;20000;-69
2022/08/04 11:32:41;;;;;;;0.85;0.75;;;33.60;37.50;;;;;;6245332;22;20030;-68
2022/08/04 11:35:30;;;;;;;3.03;1.10;;;33.60;37.40;;;;;;6246103;22;20044;-69
2022/08/04 11:38:08;;;;;;;3.72;1.00;;;33.70;37.60;;;;;;6244692;23;20008;-68
2022/08/04 11:40:41;;;;;;;1.63;0.90;;;33.70;37.60;;;;;;6245770;22;20071;-69
2022/08/04 11:43:20;;;;;;;1.27;1.00;;;33.80;37.50;;;;;;6245556;22;20020;-70
2022/08/04 11:46:00;;;;;;;5.78;1.33;;;33.80;37.50;;;;;;6245534;22;20000;-68
2022/08/04 11:48:43;;;;;;;2.47;0.98;;;33.90;37.20;;;;;;6245906;22;20004;-70
2022/08/04 11:51:10;;;;;;;1.40;1.00;;;33.90;37.00;;;;;;6245599;22;20000;-69
2022/08/04 11:53:38;;;;;;;2.70;1.00;;;34.00;37.70;;;;;;6245288;22;20004;-69
2022/08/04 11:56:09;;;;;;;2.20;1.00;;;34.00;36.90;;;;;;6245403;22;20000;-68
2022/08/04 11:58:35;;;;;;;2.13;1.00;;;34.00;36.90;;;;;;6244893;22;20000;-69
2022/08/04 12:01:19;;;;;;;1.25;1.05;;;34.00;36.90;;;;;;6244857;22;20334;-69
2022/08/04 12:04:00;;;;;;;3.70;1.02;;;34.00;36.90;;;;;;6245066;23;20019;-68
2022/08/04 12:06:48;;;;;;;7.07;0.93;;;34.10;36.80;;;;;;6244977;22;20068;-69
2022/08/04 12:09:52;;;;;;;1.35;1.02;;;34.10;36.50;;;;;;6245449;22;20595;-69
2022/08/04 12:12:53;;;;;;;1.13;0.88;;;34.00;36.30;;;;;;6228572;23;20373;-69
2022/08/04 12:15:33;;;;;;;2.60;1.00;;;34.10;36.40;;;;;;6242989;23;20431;-69
2022/08/04 12:18:19;;;;;;;3.53;0.90;;;34.20;36.60;;;;;;6245543;22;20028;-69
2022/08/04 12:20:49;;;;;;;3.67;0.90;;;34.20;36.30;;;;;;6244556;23;20011;-68
2022/08/04 12:23:23;;;;;;;5.00;1.15;;;34.20;36.40;;;;;;6245112;22;20023;-69
2022/08/04 12:25:53;;;;;;;2.35;1.10;;;34.30;35.90;;;;;;6245648;22;20023;-70
2022/08/04 12:28:30;;;;;;;2.30;1.15;;;34.30;35.90;;;;;;6245076;22;20020;-68
2022/08/04 12:31:03;;;;;;;4.57;1.00;;;34.30;35.90;;;;;;6243898;22;20398;-69
2022/08/04 12:33:53;;;;;;;5.82;0.90;;;34.30;36.20;;;;;;6241817;22;20075;-70
2022/08/04 12:36:37;;;;;;;5.07;1.30;;;34.40;35.90;;;;;;6242844;22;20470;-69
2022/08/04 12:39:25;;;;;;;2.58;1.00;;;34.30;35.80;;;;;;6245695;22;20059;-69
2022/08/04 12:42:10;;;;;;;2.30;1.10;;;34.40;36.40;;;;;;6245161;22;20091;-68
2022/08/04 12:44:40;;;;;;;2.17;1.10;;;34.40;35.60;;;;;;6246452;22;20485;-69
2022/08/04 12:47:11;;;;;;;2.40;1.15;;;34.50;36.10;;;;;;6247486;22;20004;-70
2022/08/04 12:49:41;;;;;;;1.92;1.13;;;34.50;35.80;;;;;;6245396;22;20001;-68
2022/08/04 12:52:13;;;;;;;1.20;0.88;;;34.50;36.10;;;;;;6246401;22;20008;-69
2022/08/04 12:54:42;;;;;;;4.65;1.00;;;34.50;35.80;;;;;;6247179;22;20080;-69
2022/08/04 12:57:09;;;;;;;4.18;0.98;;;34.50;35.90;;;;;;6247055;22;20425;-70
2022/08/04 12:59:40;;;;;;;3.70;1.10;;;34.50;36.10;;;;;;6246436;22;20039;-69
2022/08/04 13:02:36;;;;;;;2.80;1.20;;;34.50;35.90;;;;;;6246450;22;20028;-69
2022/08/04 13:05:04;;;;;;;4.80;0.98;;;34.60;35.90;;;;;;6245815;23;20095;-69
2022/08/04 13:07:41;;;;;;;3.72;1.02;;;34.60;36.00;;;;;;6247011;22;20012;-69
2022/08/04 13:10:15;;;;;;;2.92;0.95;;;34.60;36.00;;;;;;6246343;22;20071;-68
2022/08/04 13:12:51;;;;;;;2.05;0.95;;;34.60;36.10;;;;;;6246409;22;20027;-68
2022/08/04 13:15:20;;;;;;;1.05;0.85;;;34.60;36.00;;;;;;6246183;22;20094;-68
2022/08/04 13:18:02;;;;;;;4.43;1.15;;;34.60;35.90;;;;;;6246005;22;20023;-67
2022/08/04 13:20:34;;;;;;;7.72;1.20;;;34.70;35.90;;;;;;6245608;22;20000;-70
2022/08/04 13:23:05;;;;;;;2.95;0.90;;;34.70;35.90;;;;;;6245579;22;20019;-67
2022/08/04 13:25:32;;;;;;;5.57;1.20;;;34.70;35.80;;;;;;6246703;22;20368;-70
2022/08/04 13:28:19;;;;;;;2.33;1.10;;;34.70;35.60;;;;;;6246038;22;20016;-69
2022/08/04 13:30:45;;;;;;;4.72;1.10;;;34.80;35.40;;;;;;6245616;23;20004;-68
2022/08/04 13:33:12;;;;;;;3.50;1.00;;;34.80;35.30;;;;;;6245683;22;20015;-69
2022/08/04 13:35:47;;;;;;;1.27;0.90;;;34.90;35.20;;;;;;6246516;22;20411;-68
2022/08/04 13:38:14;;;;;;;16.27;2.35;;;34.80;35.50;;;;;;6246828;22;20000;-68
2022/08/04 13:40:42;;;;;;;5.18;0.90;;;34.80;35.50;;;;;;6246726;22;20000;-69
2022/08/04 13:43:10;;;;;;;3.67;1.10;;;34.90;35.80;;;;;;6246566;22;20004;-67